Rechercher aéroport 
image banner adimage banner ad
image banner ad

SVVI - Villa Del Rosario

Situé à Zulia, Venezuela

ICAO - , IATA -

Données fournies par Airmate  

Information générale

Coordonnées: N10°18'60" W72°18'0"
Élévation : feet MSL.
 
Voir autres Aéroports à Zulia

Données opérationnelles

Accessible au public
Heure actuelle UTC:
Heure actuelle locale:
Météo à : SVMC - Maracaibo / La Chinita Intl ( 68 km )
METAR: SVMC 262102Z AUTO 01007KT NCD 31/23 Q1008
TAF: TAF SVMC 262200Z 2618/2718 16007KT 9999 FEW013 TX35/2619Z TN24/2508Z TEMPO 2618/2622 13002KT 9000 DZ BKN016
Voir NOTAMs / SUP AIP / TFR affectant cet aéroport [VIEW]
Fréquences de communication: [VIEW]

Pistes:

Identifiant RWYQFULongueur (ft)Largeur (ft)SurfaceLDA (ft)
1400
3200

Coordonnées de l'aéroport

Adresse: Zulia Venezuela

Vue satellite de SVVI